createdAt,value
2019-02-22T00:00:55.997Z,22.90
2019-02-22T00:03:36.904Z,24.63
2019-02-22T00:06:17.844Z,22.83
2019-02-22T00:08:58.817Z,24.73
2019-02-22T00:11:39.253Z,23.77
2019-02-22T00:14:20.315Z,22.40
2019-02-22T00:17:00.976Z,22.30
2019-02-22T00:19:41.878Z,21.73
2019-02-22T00:22:22.485Z,21.20
2019-02-22T00:25:03.341Z,20.53
2019-02-22T00:27:43.563Z,23.33
2019-02-22T00:30:24.524Z,24.00
2019-02-22T00:33:05.625Z,20.60
2019-02-22T00:35:45.858Z,24.37
2019-02-22T00:38:27.186Z,22.20
2019-02-22T00:41:07.592Z,23.53
2019-02-22T00:43:48.268Z,23.83
2019-02-22T00:46:29.567Z,25.90
2019-02-22T00:49:10.660Z,21.87
2019-02-22T00:51:51.476Z,25.97
2019-02-22T00:54:32.237Z,22.93
2019-02-22T00:57:13.032Z,24.60
2019-02-22T00:59:53.638Z,24.90
2019-02-22T01:02:34.286Z,31.23
2019-02-22T01:05:15.170Z,24.70
2019-02-22T01:07:55.372Z,27.33
2019-02-22T01:10:36.220Z,28.17
2019-02-22T01:13:16.920Z,27.93
2019-02-22T01:15:45.332Z,31.63
2019-02-22T01:18:33.087Z,24.93
2019-02-22T01:21:20.838Z,32.53
2019-02-22T01:24:08.591Z,26.73
2019-02-22T01:26:56.343Z,27.07
2019-02-22T01:29:44.106Z,27.17
2019-02-22T01:32:31.873Z,24.30
2019-02-22T01:35:19.623Z,27.30
2019-02-22T01:38:26.707Z,27.43
2019-02-22T01:41:14.456Z,29.67
2019-02-22T01:44:02.214Z,25.90
2019-02-22T01:46:50.065Z,25.90
2019-02-22T01:49:37.864Z,27.67
2019-02-22T01:52:25.627Z,24.57
2019-02-22T01:55:13.385Z,25.87
2019-02-22T01:58:01.141Z,27.73
2019-02-22T02:00:48.891Z,25.13
2019-02-22T02:03:36.717Z,24.97
2019-02-22T02:06:24.461Z,25.30
2019-02-22T02:09:12.217Z,23.63
2019-02-22T02:12:01.848Z,23.00
2019-02-22T02:14:49.462Z,20.73
2019-02-22T02:17:37.221Z,21.13
2019-02-22T02:20:25.020Z,24.27
2019-02-22T02:23:12.845Z,25.93
2019-02-22T02:26:00.669Z,25.13
2019-02-22T02:28:48.450Z,26.07
2019-02-22T02:31:36.196Z,27.40
2019-02-22T02:34:23.950Z,29.77
2019-02-22T02:37:11.705Z,27.33
2019-02-22T02:39:59.470Z,29.83
2019-02-22T02:42:47.222Z,30.63
2019-02-22T02:45:35.040Z,32.00
2019-02-22T02:48:22.813Z,33.73
2019-02-22T02:51:10.580Z,35.13
2019-02-22T02:53:58.344Z,36.37
2019-02-22T02:56:46.414Z,36.10
2019-02-22T02:59:35.586Z,32.97
2019-02-22T03:05:18.328Z,36.33
2019-02-22T03:08:00.688Z,33.60
2019-02-22T03:10:41.254Z,33.27
2019-02-22T03:13:22.009Z,31.73
2019-02-22T03:16:02.608Z,33.93
2019-02-22T03:18:43.345Z,38.67
2019-02-22T03:21:24.157Z,35.73
2019-02-22T03:24:02.804Z,40.80
2019-02-22T03:26:50.561Z,39.00
2019-02-22T03:29:38.307Z,41.90
2019-02-22T03:32:26.070Z,42.00
2019-02-22T03:35:13.845Z,43.13
2019-02-22T03:38:01.674Z,44.47
2019-02-22T03:40:49.423Z,42.47
2019-02-22T03:43:37.190Z,50.83
2019-02-22T03:46:24.944Z,44.00
2019-02-22T03:49:12.686Z,42.30
2019-02-22T03:54:55.700Z,44.37
2019-02-22T03:57:43.452Z,42.93
2019-02-22T04:00:31.213Z,48.87
2019-02-22T04:03:18.988Z,44.47
2019-02-22T04:06:06.723Z,41.73
2019-02-22T04:11:30.114Z,47.43
2019-02-22T04:14:10.889Z,45.77
2019-02-22T04:16:51.399Z,44.83
2019-02-22T04:19:31.922Z,41.67
2019-02-22T04:22:12.932Z,44.70
2019-02-22T04:24:53.659Z,45.00
2019-02-22T04:27:34.743Z,41.20
2019-02-22T04:30:15.664Z,42.27
2019-02-22T04:32:54.419Z,42.13
2019-02-22T04:35:42.182Z,43.67
2019-02-22T04:38:29.928Z,40.23
2019-02-22T04:41:17.682Z,43.10
2019-02-22T04:44:05.444Z,39.07
2019-02-22T04:46:53.201Z,45.00
2019-02-22T04:49:40.949Z,43.83
2019-02-22T04:52:28.699Z,44.43
2019-02-22T04:55:16.452Z,45.73
2019-02-22T04:58:04.207Z,46.07
2019-02-22T05:00:51.960Z,49.63
2019-02-22T05:03:39.819Z,42.10
2019-02-22T05:06:27.682Z,44.03
2019-02-22T05:09:07.986Z,46.60
2019-02-22T05:11:48.747Z,45.13
2019-02-22T05:14:29.453Z,48.90
2019-02-22T05:17:10.392Z,49.67
2019-02-22T05:19:50.987Z,50.93
2019-02-22T05:22:31.736Z,51.07
2019-02-22T05:25:12.647Z,51.23
2019-02-22T05:27:53.439Z,55.33
2019-02-22T05:30:36.426Z,50.10
2019-02-22T05:33:19.285Z,52.33
2019-02-22T05:35:59.992Z,49.33
2019-02-22T05:38:40.742Z,50.53
2019-02-22T05:44:03.813Z,47.87
2019-02-22T05:46:44.251Z,50.67
2019-02-22T05:49:25.204Z,52.53
2019-02-22T05:52:06.096Z,52.13
2019-02-22T05:54:47.117Z,52.07
2019-02-22T05:57:27.830Z,54.07
2019-02-22T06:00:08.610Z,55.63
2019-02-22T06:02:48.838Z,55.20
2019-02-22T06:05:29.447Z,50.80
2019-02-22T06:08:10.093Z,50.33
2019-02-22T06:10:50.997Z,52.77
2019-02-22T06:13:31.782Z,51.37
2019-02-22T06:16:12.746Z,54.87
2019-02-22T06:18:53.629Z,55.10
2019-02-22T06:21:34.220Z,62.03
2019-02-22T06:24:14.773Z,60.33
2019-02-22T06:26:55.520Z,59.63
2019-02-22T06:29:36.442Z,61.87
2019-02-22T06:32:17.229Z,61.87
2019-02-22T06:34:58.020Z,63.03
2019-02-22T06:37:38.794Z,63.80
2019-02-22T06:40:19.494Z,62.60
2019-02-22T06:43:00.656Z,61.20
2019-02-22T06:45:40.989Z,63.97
2019-02-22T06:48:21.964Z,62.17
2019-02-22T06:51:02.874Z,67.50
2019-02-22T06:53:43.949Z,66.77
2019-02-22T06:56:24.682Z,65.37
2019-02-22T06:59:05.645Z,70.53
2019-02-22T07:01:46.407Z,71.43
2019-02-22T07:04:26.960Z,72.07
2019-02-22T07:07:07.668Z,78.10
2019-02-22T07:09:48.588Z,77.67
2019-02-22T07:12:56.533Z,73.43
2019-02-22T07:15:30.697Z,75.40
2019-02-22T07:18:11.820Z,66.20
2019-02-22T07:20:52.505Z,68.97
2019-02-22T07:23:32.909Z,64.50
2019-02-22T07:26:13.465Z,66.73
2019-02-22T07:28:54.484Z,60.53
2019-02-22T07:31:35.049Z,74.47
2019-02-22T07:34:15.956Z,67.27
2019-02-22T07:36:54.696Z,60.30
2019-02-22T07:39:42.464Z,63.73
2019-02-22T07:42:30.208Z,58.30
2019-02-22T07:45:17.963Z,55.93
2019-02-22T07:48:05.717Z,60.97
2019-02-22T07:50:57.509Z,56.40
2019-02-22T07:53:42.965Z,54.77
2019-02-22T07:56:30.722Z,55.80
2019-02-22T07:59:18.473Z,58.73
2019-02-22T08:02:06.310Z,58.50
2019-02-22T08:04:54.074Z,73.83
2019-02-22T08:07:35.156Z,70.07
2019-02-22T08:10:15.715Z,70.87
2019-02-22T08:12:56.395Z,70.33
2019-02-22T08:15:37.062Z,65.17
2019-02-22T08:18:17.842Z,67.40
2019-02-22T08:20:58.651Z,73.00
2019-02-22T08:23:39.532Z,66.27
2019-02-22T08:26:20.795Z,77.63
2019-02-22T08:31:43.382Z,76.00
2019-02-22T08:34:24.076Z,66.33
2019-02-22T08:37:05.014Z,60.30
2019-02-22T08:39:57.464Z,61.27
2019-02-22T08:42:28.557Z,63.80
2019-02-22T08:45:09.888Z,66.37
2019-02-22T08:47:50.689Z,67.43
2019-02-22T08:50:30.987Z,69.00
2019-02-22T08:53:12.052Z,66.20
2019-02-22T08:55:52.843Z,66.87
2019-02-22T08:58:33.772Z,75.07
2019-02-22T09:01:14.472Z,62.07
2019-02-22T09:03:55.050Z,64.43
2019-02-22T09:09:17.937Z,60.67
2019-02-22T09:11:58.668Z,61.00
2019-02-22T09:14:39.624Z,65.43
2019-02-22T09:17:19.859Z,59.93
2019-02-22T09:20:00.395Z,56.13
2019-02-22T09:22:41.355Z,50.20
2019-02-22T09:25:22.085Z,55.80
2019-02-22T09:28:02.805Z,62.50
2019-02-22T09:33:39.129Z,62.83
2019-02-22T09:36:20.236Z,53.27
2019-02-22T09:41:30.469Z,50.50
2019-02-22T09:44:18.248Z,55.73
2019-02-22T09:47:06.007Z,55.30
2019-02-22T09:49:53.802Z,55.47
2019-02-22T09:52:41.607Z,58.60
2019-02-22T09:55:29.383Z,52.20
2019-02-22T09:58:17.136Z,53.37
2019-02-22T10:01:05.732Z,52.90
2019-02-22T10:03:53.485Z,52.07
2019-02-22T10:06:34.331Z,49.37
2019-02-22T10:09:15.246Z,48.20
2019-02-22T10:11:56.171Z,48.00
2019-02-22T10:14:37.163Z,52.00
2019-02-22T10:17:17.796Z,51.93
2019-02-22T10:19:58.475Z,44.00
2019-02-22T10:22:39.241Z,45.83
2019-02-22T10:25:20.290Z,42.63
2019-02-22T10:28:01.103Z,41.97
2019-02-22T10:30:42.124Z,47.80
2019-02-22T10:33:22.912Z,43.63
2019-02-22T10:36:04.003Z,53.00
2019-02-22T10:38:44.976Z,48.27
2019-02-22T10:41:25.991Z,48.40
2019-02-22T10:44:15.048Z,45.13
2019-02-22T10:46:49.053Z,46.47
2019-02-22T10:49:29.907Z,43.60
2019-02-22T10:52:10.662Z,44.73
2019-02-22T10:54:51.352Z,44.37
2019-02-22T10:57:32.411Z,45.13
2019-02-22T11:00:00.830Z,53.10
2019-02-22T11:02:48.580Z,41.83
2019-02-22T11:05:36.336Z,41.50
2019-02-22T11:08:24.120Z,39.37
2019-02-22T11:14:44.786Z,39.30
2019-02-22T11:17:32.532Z,35.03
2019-02-22T11:20:20.304Z,38.20
2019-02-22T11:23:08.188Z,37.50
2019-02-22T11:25:55.948Z,36.27
2019-02-22T11:28:43.805Z,36.70
2019-02-22T11:31:31.609Z,34.90
2019-02-22T11:34:19.368Z,68.47
2019-02-22T11:37:07.214Z,33.27
2019-02-22T11:39:55.060Z,34.60
2019-02-22T11:42:42.830Z,33.57
2019-02-22T11:45:30.596Z,37.00
2019-02-22T11:48:18.363Z,29.80
2019-02-22T11:51:06.418Z,32.27
2019-02-22T11:53:54.228Z,30.93
2019-02-22T11:56:41.977Z,31.77
2019-02-22T11:59:29.728Z,28.43
2019-02-22T12:02:17.479Z,30.33
2019-02-22T12:05:05.428Z,30.37
2019-02-22T12:07:53.179Z,28.73
2019-02-22T12:10:34.418Z,31.00
2019-02-22T12:13:14.968Z,26.73
2019-02-22T12:15:55.652Z,32.07
2019-02-22T12:18:55.661Z,30.57
2019-02-22T12:21:35.844Z,28.53
2019-02-22T12:24:16.671Z,25.87
2019-02-22T12:26:57.665Z,26.30
2019-02-22T12:29:37.924Z,26.67
2019-02-22T12:32:16.668Z,26.80
2019-02-22T12:35:05.122Z,29.27
2019-02-22T12:37:53.096Z,24.93
2019-02-22T12:40:40.931Z,24.53
2019-02-22T12:43:28.807Z,30.47
2019-02-22T12:46:16.603Z,24.30
2019-02-22T12:49:04.365Z,21.77
2019-02-22T12:52:11.473Z,25.33
2019-02-22T12:54:59.232Z,24.67
2019-02-22T12:57:47.030Z,26.83
2019-02-22T13:00:34.989Z,39.97
2019-02-22T13:03:22.800Z,23.63
2019-02-22T13:06:10.558Z,24.63
2019-02-22T13:08:58.327Z,23.27
2019-02-22T13:11:58.101Z,24.90
2019-02-22T13:14:38.816Z,24.93
2019-02-22T13:17:30.220Z,23.83
2019-02-22T13:20:02.505Z,25.23
2019-02-22T13:22:43.574Z,22.90
2019-02-22T13:25:24.150Z,22.57
2019-02-22T13:30:50.615Z,24.27
2019-02-22T13:33:33.624Z,22.57
2019-02-22T13:36:13.993Z,25.33
2019-02-22T13:38:55.078Z,21.73
2019-02-22T13:41:35.908Z,23.83
2019-02-22T13:44:16.870Z,24.27
2019-02-22T13:46:57.611Z,21.83
2019-02-22T13:49:38.227Z,23.47
2019-02-22T13:52:19.289Z,28.33
2019-02-22T13:55:00.247Z,28.23
2019-02-22T13:57:41.197Z,22.43
2019-02-22T14:00:21.411Z,20.40
2019-02-22T14:03:02.148Z,19.47
2019-02-22T14:05:43.072Z,26.57
2019-02-22T14:08:24.146Z,19.50
2019-02-22T14:11:05.212Z,19.90
2019-02-22T14:13:45.637Z,19.60
2019-02-22T14:16:26.784Z,20.97
2019-02-22T14:19:07.701Z,17.20
2019-02-22T14:21:50.404Z,17.27
2019-02-22T14:24:31.339Z,15.93
2019-02-22T14:27:12.217Z,22.23
2019-02-22T14:29:53.134Z,22.80
2019-02-22T14:32:34.215Z,18.17
2019-02-22T14:35:14.758Z,21.90
2019-02-22T14:37:55.426Z,17.77
2019-02-22T14:40:36.340Z,19.43
2019-02-22T14:46:25.554Z,21.73
2019-02-22T14:48:58.426Z,21.97
2019-02-22T14:51:26.832Z,19.23
2019-02-22T14:54:14.591Z,19.23
2019-02-22T14:57:02.361Z,18.57
2019-02-22T14:59:50.111Z,17.97
2019-02-22T15:02:37.872Z,19.07
2019-02-22T15:05:25.628Z,16.20
2019-02-22T15:08:13.425Z,16.13
2019-02-22T15:11:01.237Z,19.27
2019-02-22T15:13:42.086Z,21.20
2019-02-22T15:19:18.019Z,16.47
2019-02-22T15:22:00.982Z,15.57
2019-02-22T15:24:41.904Z,16.80
2019-02-22T15:27:22.626Z,15.50
2019-02-22T15:30:03.375Z,15.77
2019-02-22T15:32:44.570Z,19.23
2019-02-22T15:35:25.363Z,17.73
2019-02-22T15:38:05.832Z,18.23
2019-02-22T15:40:46.875Z,25.97
2019-02-22T15:43:27.730Z,16.27
2019-02-22T15:46:12.227Z,15.97
2019-02-22T15:48:51.316Z,14.97
2019-02-22T15:51:31.841Z,17.23
2019-02-22T15:54:12.428Z,16.63
2019-02-22T15:56:53.037Z,17.00
2019-02-22T15:59:33.772Z,15.67
2019-02-22T16:02:14.574Z,17.17
2019-02-22T16:04:57.280Z,16.03
2019-02-22T16:07:44.618Z,17.40
2019-02-22T16:10:20.938Z,18.03
2019-02-22T16:12:49.416Z,20.23
2019-02-22T16:15:37.208Z,13.50
2019-02-22T16:18:24.962Z,17.30
2019-02-22T16:21:12.720Z,10.93
2019-02-22T16:24:00.509Z,9.83
2019-02-22T16:29:47.064Z,10.70
2019-02-22T16:32:34.988Z,11.20
2019-02-22T16:35:22.795Z,8.47
2019-02-22T16:38:10.553Z,10.77
2019-02-22T16:40:58.307Z,13.47
2019-02-22T16:43:46.056Z,9.70
2019-02-22T16:46:35.224Z,8.67
2019-02-22T16:49:23.127Z,9.90
2019-02-22T16:52:10.877Z,9.00
2019-02-22T16:54:58.616Z,8.30
2019-02-22T16:57:46.367Z,5.53
2019-02-22T17:00:34.156Z,6.00
2019-02-22T17:03:21.900Z,6.00
2019-02-22T17:06:09.643Z,5.03
2019-02-22T17:08:57.395Z,5.93
2019-02-22T17:11:45.144Z,4.27
2019-02-22T17:14:25.333Z,4.47
2019-02-22T17:17:05.636Z,4.93
2019-02-22T17:19:45.943Z,4.50
2019-02-22T17:22:26.821Z,3.97
2019-02-22T17:25:07.876Z,5.17
2019-02-22T17:27:48.633Z,5.03
2019-02-22T17:30:29.481Z,7.53
2019-02-22T17:33:09.941Z,5.27
2019-02-22T17:35:51.117Z,5.27
2019-02-22T17:38:32.297Z,5.70
2019-02-22T17:41:13.280Z,8.00
2019-02-22T17:43:53.826Z,6.50
2019-02-22T17:46:34.617Z,9.50
2019-02-22T17:49:15.067Z,8.40
2019-02-22T17:51:55.949Z,8.30
2019-02-22T17:54:36.582Z,8.53
2019-02-22T17:57:17.292Z,11.37
2019-02-22T17:59:58.265Z,10.33
2019-02-22T18:02:38.994Z,10.73
2019-02-22T18:05:19.725Z,10.07
2019-02-22T18:08:00.785Z,13.03
2019-02-22T18:10:41.094Z,10.93
2019-02-22T18:13:21.861Z,11.00
2019-02-22T18:16:02.624Z,11.73
2019-02-22T18:18:43.574Z,12.10
2019-02-22T18:21:24.368Z,11.53
2019-02-22T18:24:05.391Z,11.13
2019-02-22T18:26:45.890Z,11.97
2019-02-22T18:29:35.012Z,13.23
2019-02-22T18:32:09.094Z,11.67
2019-02-22T18:34:49.918Z,12.37
2019-02-22T18:37:30.811Z,13.47
2019-02-22T18:40:11.904Z,13.23
2019-02-22T18:42:52.297Z,11.80
2019-02-22T18:45:32.838Z,11.37
2019-02-22T18:48:13.733Z,12.63
2019-02-22T18:50:54.463Z,11.27
2019-02-22T18:53:35.365Z,13.77
2019-02-22T18:56:15.560Z,12.87
2019-02-22T18:58:56.667Z,11.37
2019-02-22T19:01:37.703Z,12.60
2019-02-22T19:04:18.042Z,10.87
2019-02-22T19:06:59.072Z,12.30
2019-02-22T19:09:37.773Z,13.33
2019-02-22T19:12:25.532Z,11.90
2019-02-22T19:15:05.999Z,11.90
2019-02-22T19:17:47.163Z,12.37
2019-02-22T19:20:28.018Z,12.47
2019-02-22T19:23:08.719Z,11.87
2019-02-22T19:25:49.141Z,9.23
2019-02-22T19:28:29.868Z,9.27
2019-02-22T19:31:10.853Z,6.20
2019-02-22T19:33:51.862Z,6.80
2019-02-22T19:36:32.220Z,7.27
2019-02-22T19:39:13.298Z,5.97
2019-02-22T19:41:54.304Z,6.27
2019-02-22T19:44:35.232Z,7.43
2019-02-22T19:47:15.501Z,5.63
2019-02-22T19:49:56.843Z,6.33
2019-02-22T19:55:20.264Z,5.60
2019-02-22T19:58:01.384Z,5.80
2019-02-22T20:00:42.028Z,5.93
2019-02-22T20:09:22.095Z,8.10
2019-02-22T20:12:02.930Z,7.47
2019-02-22T20:14:43.593Z,8.40
2019-02-22T20:17:24.648Z,8.77
2019-02-22T20:20:05.071Z,8.77
2019-02-22T20:22:45.900Z,9.00
2019-02-22T20:25:26.411Z,9.27
2019-02-22T20:28:06.741Z,9.17
2019-02-22T20:30:47.548Z,9.00
2019-02-22T20:33:28.068Z,10.30
2019-02-22T20:36:11.590Z,9.80
2019-02-22T20:38:52.307Z,10.17
2019-02-22T20:41:33.026Z,11.13
2019-02-22T20:44:13.275Z,10.30
2019-02-22T20:46:54.273Z,10.90
2019-02-22T20:49:35.380Z,10.17
2019-02-22T20:52:15.688Z,10.70
2019-02-22T20:54:56.443Z,11.70
2019-02-22T20:57:36.644Z,10.47
2019-02-22T21:00:17.755Z,10.20
2019-02-22T21:02:58.604Z,11.43
2019-02-22T21:05:39.304Z,9.60
2019-02-22T21:08:19.748Z,11.57
2019-02-22T21:11:00.803Z,11.23
2019-02-22T21:13:41.443Z,10.53
2019-02-22T21:16:22.032Z,10.10
2019-02-22T21:19:03.008Z,10.47
2019-02-22T21:21:43.709Z,10.43
2019-02-22T21:24:24.717Z,9.23
2019-02-22T21:27:04.984Z,9.03
2019-02-22T21:29:45.805Z,9.33
2019-02-22T21:32:26.895Z,9.03
2019-02-22T21:35:07.307Z,9.03
2019-02-22T21:37:48.281Z,9.47
2019-02-22T21:40:29.419Z,10.73
2019-02-22T21:43:10.277Z,11.03
2019-02-22T21:45:50.488Z,11.73
2019-02-22T21:48:31.277Z,11.80
2019-02-22T21:51:12.141Z,10.73
2019-02-22T21:53:52.850Z,11.27
2019-02-22T21:56:33.820Z,12.17
2019-02-22T21:59:13.976Z,15.27
2019-02-22T22:01:54.953Z,18.90
2019-02-22T22:04:36.016Z,11.63
2019-02-22T22:07:16.746Z,11.00
2019-02-22T22:09:56.981Z,11.63
2019-02-22T22:12:37.876Z,13.00
2019-02-22T22:15:16.530Z,17.07
2019-02-22T22:18:04.275Z,13.77
2019-02-22T22:20:52.030Z,16.43
2019-02-22T22:23:39.771Z,18.00
2019-02-22T22:26:27.523Z,17.23
2019-02-22T22:29:15.282Z,15.03
2019-02-22T22:32:03.037Z,12.23
2019-02-22T22:34:50.829Z,12.43
2019-02-22T22:37:38.585Z,13.00
2019-02-22T22:40:26.351Z,12.83
2019-02-22T22:43:14.152Z,13.60
2019-02-22T22:46:01.921Z,12.93
2019-02-22T22:48:50.731Z,13.90
2019-02-22T22:51:31.652Z,13.20
2019-02-22T22:54:12.048Z,12.57
2019-02-22T22:56:52.965Z,14.33
2019-02-22T22:59:33.937Z,13.27
2019-02-22T23:02:14.680Z,14.33
2019-02-22T23:04:55.683Z,14.17
2019-02-22T23:07:36.629Z,13.30
2019-02-22T23:10:17.765Z,13.47
2019-02-22T23:12:58.675Z,13.83
2019-02-22T23:15:39.224Z,13.90
2019-02-22T23:18:20.134Z,14.17
2019-02-22T23:21:00.432Z,13.73
2019-02-22T23:23:40.963Z,14.33
2019-02-22T23:26:21.637Z,14.70
2019-02-22T23:29:02.477Z,14.77
2019-02-22T23:31:43.295Z,14.53
2019-02-22T23:34:24.115Z,14.70
2019-02-22T23:37:04.590Z,13.70
2019-02-22T23:39:45.345Z,13.80
2019-02-22T23:42:26.401Z,13.00
2019-02-22T23:47:48.887Z,12.07
2019-02-22T23:50:29.457Z,12.70
2019-02-22T23:53:10.072Z,12.93
2019-02-22T23:55:50.562Z,12.87
2019-02-22T23:58:31.538Z,12.27
